EST,Max TemperatureF,Mean TemperatureF,Min TemperatureF,Max Dew PointF,MeanDew PointF,Min DewpointF,Max Humidity, Mean Humidity, Min Humidity, Max Sea Level PressureIn, Mean Sea Level PressureIn, Min Sea Level PressureIn, Max VisibilityMiles, Mean VisibilityMiles, Min VisibilityMiles, Max Wind SpeedMPH, Mean Wind SpeedMPH, Max Gust SpeedMPH,PrecipitationIn, CloudCover, Events, WindDirDegrees
2012-11-1,57,50,44,39,37,36,76,59,45,29.78,29.72,29.68,10,10,10,10,7,,0.00,5,,266
2012-11-2,61,50,39,37,32,27,82,54,31,29.95,29.83,29.77,10,10,10,16,8,30,0.00,2,,281
2012-11-3,55,46,37,35,31,29,79,61,41,30.10,30.03,29.95,10,10,10,13,4,23,0.00,3,,328
2012-11-4,52,44,37,38,34,32,86,66,50,30.11,30.05,29.99,10,10,5,6,1,,0.00,6,,14
2012-11-5,51,43,35,36,31,27,82,65,39,30.15,30.08,30.03,10,10,6,12,5,,0.00,0,,351
2012-11-6,48,42,37,43,34,29,87,67,54,30.16,30.05,29.88,10,10,6,15,7,21,0.04,4,Rain,12
2012-11-7,48,45,42,41,37,33,82,73,62,29.90,29.85,29.82,10,10,6,16,12,24,0.07,8,Rain,350
2012-11-8,59,49,39,36,23,10,81,46,14,30.06,29.94,29.89,10,10,9,17,9,23,0.00,4,Rain,316
2012-11-9,59,49,37,37,32,24,86,59,37,30.26,30.19,30.07,10,9,4,15,5,22,0.00,0,,312
2012-11-10,70,52,35,43,36,33,93,72,28,30.40,30.31,30.25,10,5,0,8,1,,0.00,0,Fog,175
2012-11-11,72,57,42,50,42,37,86,66,32,30.50,30.46,30.40,10,9,2,9,2,,0.00,0,,186
2012-11-12,75,60,46,59,50,42,94,78,48,30.46,30.38,30.20,10,5,0,16,3,20,0.00,1,Fog,165
2012-11-13,66,56,45,61,46,37,88,81,73,30.43,30.31,30.17,10,8,0,22,9,30,0.19,8,Fog-Rain,2
2012-11-14,51,44,37,35,32,30,77,65,48,30.49,30.44,30.40,10,10,10,16,9,28,0.00,2,,9
2012-11-15,54,48,41,42,39,31,83,69,61,30.37,30.31,30.27,10,10,7,15,6,18,0.06,7,Rain,22
2012-11-16,54,46,36,41,35,30,86,68,41,30.40,30.32,30.26,10,10,9,13,5,21,0.03,3,Rain,13
2012-11-17,55,46,37,43,38,32,83,70,57,30.52,30.49,30.40,10,10,10,16,8,22,0.00,4,,23
2012-11-18,57,54,50,45,43,42,77,70,60,30.50,30.45,30.38,10,10,10,20,14,29,0.00,5,,32
2012-11-19,54,52,51,46,44,42,75,73,69,30.37,30.27,30.17,10,10,10,18,13,28,0.00,8,,14
2012-11-20,57,50,44,45,43,40,85,72,57,30.16,30.12,30.08,10,9,6,9,7,17,0.00,7,,18
2012-11-21,57,48,39,43,38,35,89,73,51,30.19,30.13,30.09,10,8,1,13,6,20,0.00,1,,11
2012-11-22,60,50,39,40,37,35,86,69,46,30.23,30.18,30.15,10,10,9,14,7,21,0.00,0,,14
2012-11-23,64,50,35,43,35,32,89,69,33,30.14,30.01,29.79,10,7,1,13,2,,0.00,1,Rain,224
2012-11-24,55,46,36,36,21,17,49,39,29,30.10,29.96,29.81,10,10,10,17,11,29,0.00,0,,332
2012-11-25,48,38,28,26,21,18,76,50,32,30.14,30.07,30.01,10,10,10,15,5,21,0.00,0,,236
2012-11-26,57,47,37,37,28,22,83,54,26,30.23,30.16,30.05,10,10,7,9,5,,0.00,0,,110
2012-11-27,54,46,37,43,38,34,87,72,54,30.22,30.17,30.10,10,8,2,12,5,17,0.11,7,Rain,318
2012-11-28,51,40,30,34,29,26,89,68,38,30.38,30.30,30.22,10,8,2,14,6,23,0.00,2,,329
2012-11-29,52,40,28,35,27,24,93,74,39,30.49,30.42,30.39,10,6,0,9,1,,0.00,0,Fog-Rain,75
2012-11-30,60,44,28,37,30,26,93,74,36,30.40,30.37,30.30,10,5,0,13,1,,0.00,0,Fog,215